Time;durP1;ratioP1;P1;durP2;ratioP2;P2;SDS_P1;SDS_P2;PMS_P1;PMS_P2;Temp;Humidity;BMP_temperature;BMP_pressure;BME280_temperature;BME280_humidity;BME280_pressure;Samples;Min_cycle;Max_cycle;Signal;HPM_P1;HPM_P2
2022/06/06 00:01:38;;;;;;;44.88;23.65;;;;;;;;;;5030263;28;20108;-70
2022/06/06 00:04:04;;;;;;;46.53;23.58;;;;;;;;;;5031097;28;20037;-70
2022/06/06 00:06:29;;;;;;;51.42;24.63;;;;;;;;;;5035417;28;20083;-70
2022/06/06 00:08:54;;;;;;;46.47;24.10;;;;;;;;;;5030248;28;20062;-70
2022/06/06 00:11:19;;;;;;;46.60;23.88;;;;;;;;;;5029958;28;20272;-70
2022/06/06 00:13:46;;;;;;;48.27;25.33;;;;;;;;;;5032502;28;20021;-70
2022/06/06 00:16:11;;;;;;;47.22;25.00;;;;;;;;;;5034088;28;20025;-70
2022/06/06 00:18:37;;;;;;;53.75;26.17;;;;;;;;;;5034478;28;20021;-70
2022/06/06 00:21:03;;;;;;;47.83;25.52;;;;;;;;;;5032917;28;20033;-69
2022/06/06 00:23:28;;;;;;;55.95;28.67;;;;;;;;;;5031716;28;20120;-68
2022/06/06 00:25:54;;;;;;;50.10;26.20;;;;;;;;;;5029963;28;20100;-68
2022/06/06 00:28:19;;;;;;;65.55;28.75;;;;;;;;;;5034443;28;20275;-68
2022/06/06 00:30:44;;;;;;;51.65;25.60;;;;;;;;;;5030283;28;20029;-67
2022/06/06 00:35:58;;;;;;;58.75;27.40;;;;;;;;;;5033059;28;20272;-67
2022/06/06 00:38:23;;;;;;;59.55;28.25;;;;;;;;;;5034238;28;20017;-68
2022/06/06 00:40:49;;;;;;;60.20;26.70;;;;;;;;;;5029669;28;20033;-67
2022/06/06 00:43:14;;;;;;;57.40;25.38;;;;;;;;;;5034823;28;20859;-67
2022/06/06 00:45:39;;;;;;;49.58;23.42;;;;;;;;;;5032571;28;20021;-67
2022/06/06 00:48:14;;;;;;;47.97;22.57;;;;;;;;;;5039663;28;20025;-68
2022/06/06 00:50:51;;;;;;;52.90;21.98;;;;;;;;;;5035107;28;20629;-67
2022/06/06 00:53:20;;;;;;;50.42;22.80;;;;;;;;;;5035361;28;20104;-67
2022/06/06 00:55:48;;;;;;;49.53;22.63;;;;;;;;;;5028836;28;20033;-68
2022/06/06 00:58:16;;;;;;;46.35;20.48;;;;;;;;;;5036551;28;20025;-68
2022/06/06 01:00:43;;;;;;;42.22;20.27;;;;;;;;;;5031726;28;20029;-68
2022/06/06 01:03:11;;;;;;;40.38;18.77;;;;;;;;;;5035060;28;20570;-68
2022/06/06 01:05:37;;;;;;;40.47;20.23;;;;;;;;;;5036835;28;20053;-67
2022/06/06 01:08:03;;;;;;;47.60;22.90;;;;;;;;;;5032196;28;20527;-67
2022/06/06 01:10:28;;;;;;;48.83;23.45;;;;;;;;;;5036955;28;20041;-67
2022/06/06 01:12:54;;;;;;;53.87;22.77;;;;;;;;;;5028149;28;20107;-68
2022/06/06 01:15:21;;;;;;;46.55;21.75;;;;;;;;;;5035364;28;20032;-68
2022/06/06 01:17:49;;;;;;;41.75;21.40;;;;;;;;;;5033767;28;20049;-68
2022/06/06 01:20:23;;;;;;;38.25;19.15;;;;;;;;;;5028655;28;20496;-68
2022/06/06 01:23:04;;;;;;;34.60;15.32;;;;;;;;;;5034206;28;20021;-68
2022/06/06 01:25:58;;;;;;;40.95;18.23;;;;;;;;;;5033258;28;20052;-68
2022/06/06 01:28:43;;;;;;;31.67;16.40;;;;;;;;;;5011202;28;20171;-68
2022/06/06 01:31:12;;;;;;;38.47;17.15;;;;;;;;;;5034937;28;20037;-68
2022/06/06 01:33:51;;;;;;;44.42;16.65;;;;;;;;;;5039016;28;20111;-68
2022/06/06 01:36:16;;;;;;;43.30;16.40;;;;;;;;;;5034317;28;20107;-68
2022/06/06 01:38:41;;;;;;;37.55;16.98;;;;;;;;;;5034937;28;20503;-67
2022/06/06 01:41:09;;;;;;;33.17;15.65;;;;;;;;;;5035356;28;20025;-68
2022/06/06 01:43:44;;;;;;;36.30;16.10;;;;;;;;;;5037079;28;20021;-68
2022/06/06 01:46:11;;;;;;;44.65;17.08;;;;;;;;;;5034486;28;20025;-68
2022/06/06 01:48:39;;;;;;;30.08;15.63;;;;;;;;;;5034129;28;20028;-68
2022/06/06 01:51:27;;;;;;;30.67;15.63;;;;;;;;;;5030744;28;20029;-68
2022/06/06 01:53:52;;;;;;;28.70;14.40;;;;;;;;;;5033814;28;20068;-68
2022/06/06 01:56:20;;;;;;;30.02;15.25;;;;;;;;;;5040817;28;20048;-68
2022/06/06 01:58:46;;;;;;;29.83;15.25;;;;;;;;;;5037114;28;20521;-68
2022/06/06 02:01:11;;;;;;;29.60;14.17;;;;;;;;;;5035718;28;20084;-68
2022/06/06 02:03:36;;;;;;;30.38;14.93;;;;;;;;;;5032537;28;20268;-68
2022/06/06 02:06:02;;;;;;;27.07;13.47;;;;;;;;;;5037492;28;20026;-68
2022/06/06 02:08:28;;;;;;;29.27;13.23;;;;;;;;;;5033612;28;20104;-67
2022/06/06 02:10:53;;;;;;;30.73;13.52;;;;;;;;;;5028167;28;20109;-67
2022/06/06 02:13:18;;;;;;;33.17;14.02;;;;;;;;;;5034128;28;20024;-67
2022/06/06 02:15:44;;;;;;;29.03;13.33;;;;;;;;;;5037988;28;20044;-67
2022/06/06 02:18:09;;;;;;;31.30;13.55;;;;;;;;;;5031581;28;20041;-67
2022/06/06 02:20:35;;;;;;;26.08;13.15;;;;;;;;;;5026112;28;20018;-68
2022/06/06 02:23:00;;;;;;;33.45;13.48;;;;;;;;;;5030870;28;20025;-68
2022/06/06 02:25:26;;;;;;;27.50;12.98;;;;;;;;;;5028780;28;20159;-68
2022/06/06 02:27:51;;;;;;;30.02;13.23;;;;;;;;;;5034507;28;20021;-68
2022/06/06 02:30:22;;;;;;;29.17;13.82;;;;;;;;;;5029279;28;20467;-68
2022/06/06 02:32:47;;;;;;;27.08;12.57;;;;;;;;;;5028789;28;20025;-68
2022/06/06 02:35:14;;;;;;;28.48;12.00;;;;;;;;;;5028210;28;20030;-68
2022/06/06 02:37:40;;;;;;;26.85;13.48;;;;;;;;;;5030535;28;20040;-68
2022/06/06 02:40:07;;;;;;;26.55;11.60;;;;;;;;;;5028889;28;20156;-68
2022/06/06 02:42:32;;;;;;;26.38;11.20;;;;;;;;;;5035257;28;20496;-68
2022/06/06 02:44:57;;;;;;;24.10;12.13;;;;;;;;;;5032433;28;20026;-68
2022/06/06 02:47:22;;;;;;;26.33;11.30;;;;;;;;;;5031113;28;20032;-68
2022/06/06 02:49:48;;;;;;;26.47;11.97;;;;;;;;;;5032681;28;20022;-68
2022/06/06 02:52:13;;;;;;;25.63;12.75;;;;;;;;;;5028629;28;20029;-68
2022/06/06 02:54:38;;;;;;;28.45;11.60;;;;;;;;;;5028882;28;20025;-68
2022/06/06 02:57:04;;;;;;;23.30;11.23;;;;;;;;;;5037198;28;20382;-68
2022/06/06 02:59:31;;;;;;;23.10;11.30;;;;;;;;;;5026787;28;20288;-68
2022/06/06 03:01:56;;;;;;;20.90;11.40;;;;;;;;;;5028683;28;20457;-68
2022/06/06 03:04:22;;;;;;;18.23;11.03;;;;;;;;;;5030878;28;20068;-68
2022/06/06 03:06:55;;;;;;;20.38;10.85;;;;;;;;;;5033945;28;20021;-68
2022/06/06 03:09:29;;;;;;;18.40;10.15;;;;;;;;;;5034095;28;20031;-68
2022/06/06 03:11:57;;;;;;;19.42;10.38;;;;;;;;;;5027918;28;20397;-68
2022/06/06 03:14:41;;;;;;;15.95;8.95;;;;;;;;;;5033457;28;20017;-68
2022/06/06 03:23:11;;;;;;;18.95;9.13;;;;;;;;;;5030340;28;20048;-68
2022/06/06 03:25:52;;;;;;;15.88;8.63;;;;;;;;;;5039375;28;20021;-68
2022/06/06 03:28:17;;;;;;;17.77;8.48;;;;;;;;;;5077606;22;20047;-71
2022/06/06 03:30:42;;;;;;;16.50;8.10;;;;;;;;;;5051108;28;20013;-71
2022/06/06 03:33:10;;;;;;;14.93;8.07;;;;;;;;;;5052112;28;20358;-71
2022/06/06 03:35:40;;;;;;;15.00;7.47;;;;;;;;;;5051693;28;20059;-71
2022/06/06 03:38:07;;;;;;;19.63;8.30;;;;;;;;;;5049479;28;20120;-71
2022/06/06 03:40:51;;;;;;;16.17;7.43;;;;;;;;;;5050857;28;20025;-71
2022/06/06 03:43:25;;;;;;;16.85;7.85;;;;;;;;;;5052465;28;20151;-71
2022/06/06 03:45:53;;;;;;;15.35;7.07;;;;;;;;;;5053376;28;20496;-71
2022/06/06 03:48:48;;;;;;;16.45;7.47;;;;;;;;;;5052240;28;20024;-71
2022/06/06 03:51:24;;;;;;;15.52;6.93;;;;;;;;;;5037083;28;20033;-71
2022/06/06 03:53:53;;;;;;;16.15;6.32;;;;;;;;;;5050631;28;20386;-71
2022/06/06 03:56:18;;;;;;;13.77;7.18;;;;;;;;;;5054656;28;20028;-71
2022/06/06 03:58:43;;;;;;;16.17;6.45;;;;;;;;;;5051719;28;20020;-71
2022/06/06 04:01:09;;;;;;;17.83;6.65;;;;;;;;;;5050790;28;20096;-71
2022/06/06 04:03:35;;;;;;;12.38;7.13;;;;;;;;;;5050419;28;20028;-71
2022/06/06 04:06:01;;;;;;;14.68;7.25;;;;;;;;;;5053319;28;20012;-71
2022/06/06 04:08:27;;;;;;;13.73;6.38;;;;;;;;;;5051108;28;20012;-71
2022/06/06 04:11:00;;;;;;;19.15;6.93;;;;;;;;;;5051193;28;20024;-69
2022/06/06 04:13:41;;;;;;;14.07;6.95;;;;;;;;;;5050823;28;20469;-70
2022/06/06 04:16:13;;;;;;;14.05;6.57;;;;;;;;;;5054751;28;20025;-70
2022/06/06 04:18:41;;;;;;;12.25;6.57;;;;;;;;;;5049628;28;20024;-69
2022/06/06 04:21:24;;;;;;;10.57;6.47;;;;;;;;;;5051051;28;20389;-70
2022/06/06 04:23:56;;;;;;;17.55;7.13;;;;;;;;;;5053183;28;20096;-70
2022/06/06 04:26:27;;;;;;;13.30;5.72;;;;;;;;;;5050097;28;20040;-70
2022/06/06 04:29:06;;;;;;;14.88;6.40;;;;;;;;;;5052606;28;20071;-69
2022/06/06 04:31:36;;;;;;;12.70;6.07;;;;;;;;;;5047053;28;20024;-70
2022/06/06 04:34:13;;;;;;;13.27;6.28;;;;;;;;;;5053832;28;20033;-70
2022/06/06 04:36:43;;;;;;;14.73;6.63;;;;;;;;;;5049009;28;20021;-70
2022/06/06 04:39:27;;;;;;;13.45;6.15;;;;;;;;;;5050181;28;20129;-69
2022/06/06 04:41:57;;;;;;;13.50;5.40;;;;;;;;;;5051112;28;20513;-70
2022/06/06 04:44:28;;;;;;;13.43;6.90;;;;;;;;;;5052372;28;20035;-70
2022/06/06 04:47:02;;;;;;;10.75;6.03;;;;;;;;;;5052270;28;20484;-70
2022/06/06 04:49:28;;;;;;;15.65;6.82;;;;;;;;;;5051383;28;20033;-70
2022/06/06 04:51:53;;;;;;;14.30;8.15;;;;;;;;;;5049989;28;20028;-69
2022/06/06 04:54:20;;;;;;;14.45;6.40;;;;;;;;;;5053146;28;20111;-70
2022/06/06 04:56:45;;;;;;;10.80;6.13;;;;;;;;;;5051267;28;20029;-70
2022/06/06 04:59:11;;;;;;;14.27;7.05;;;;;;;;;;5048462;28;20025;-69
2022/06/06 05:01:40;;;;;;;12.88;6.95;;;;;;;;;;5052310;28;20017;-70
2022/06/06 05:04:05;;;;;;;10.73;6.90;;;;;;;;;;5044410;28;20041;-70
2022/06/06 05:06:49;;;;;;;13.50;7.22;;;;;;;;;;5049155;28;20039;-70
2022/06/06 05:09:35;;;;;;;14.23;5.55;;;;;;;;;;5042975;28;20115;-70
2022/06/06 05:12:10;;;;;;;12.02;6.47;;;;;;;;;;5050843;28;20021;-70
2022/06/06 05:14:35;;;;;;;17.30;7.05;;;;;;;;;;5041541;28;20113;-70
2022/06/06 05:17:09;;;;;;;12.35;6.68;;;;;;;;;;5052751;28;20099;-70
2022/06/06 05:19:54;;;;;;;13.85;6.60;;;;;;;;;;5044779;28;20111;-70
2022/06/06 05:22:19;;;;;;;13.90;7.10;;;;;;;;;;5049799;28;20121;-69
2022/06/06 05:24:55;;;;;;;14.20;6.03;;;;;;;;;;5049743;28;20242;-70
2022/06/06 05:27:43;;;;;;;13.38;6.57;;;;;;;;;;5048436;28;20067;-70
2022/06/06 05:30:17;;;;;;;12.18;6.13;;;;;;;;;;5048630;28;20376;-69
2022/06/06 05:32:57;;;;;;;17.10;7.97;;;;;;;;;;5052519;28;20028;-70
2022/06/06 05:35:25;;;;;;;13.25;5.47;;;;;;;;;;5048158;28;20017;-70
2022/06/06 05:38:02;;;;;;;8.98;5.50;;;;;;;;;;5047899;28;20025;-70
2022/06/06 05:40:36;;;;;;;15.02;5.55;;;;;;;;;;5045012;28;20751;-70
2022/06/06 05:43:01;;;;;;;13.50;5.88;;;;;;;;;;5043595;28;20025;-70
2022/06/06 05:45:50;;;;;;;9.63;4.90;;;;;;;;;;5049289;28;20361;-70
2022/06/06 05:48:15;;;;;;;7.82;3.97;;;;;;;;;;5036860;28;20064;-70
2022/06/06 05:50:40;;;;;;;6.90;4.50;;;;;;;;;;5050178;28;20036;-70
2022/06/06 05:53:24;;;;;;;7.00;4.57;;;;;;;;;;5048854;28;20051;-70
2022/06/06 05:55:58;;;;;;;11.60;4.50;;;;;;;;;;5045626;28;20279;-70
2022/06/06 05:58:23;;;;;;;8.57;5.28;;;;;;;;;;5040681;28;20111;-69
2022/06/06 06:00:51;;;;;;;11.68;5.32;;;;;;;;;;5050101;28;20660;-70
2022/06/06 06:03:35;;;;;;;8.50;4.88;;;;;;;;;;5043975;28;20043;-70
2022/06/06 06:06:07;;;;;;;8.85;4.82;;;;;;;;;;5043502;28;20392;-70
2022/06/06 06:08:42;;;;;;;9.85;4.43;;;;;;;;;;5049636;28;20508;-70
2022/06/06 06:11:10;;;;;;;7.80;4.53;;;;;;;;;;5042716;28;20029;-70
2022/06/06 06:13:44;;;;;;;7.75;3.83;;;;;;;;;;5048396;28;20056;-70
2022/06/06 06:16:11;;;;;;;11.57;3.83;;;;;;;;;;5044093;28;20035;-69
2022/06/06 06:18:40;;;;;;;6.00;3.80;;;;;;;;;;5048900;28;20025;-70
2022/06/06 06:21:14;;;;;;;7.72;3.55;;;;;;;;;;5044080;28;20094;-70
2022/06/06 06:23:43;;;;;;;5.68;3.20;;;;;;;;;;5045668;28;20089;-69
2022/06/06 06:26:08;;;;;;;6.65;2.70;;;;;;;;;;5052402;28;20031;-70
2022/06/06 06:28:36;;;;;;;5.55;2.78;;;;;;;;;;5048340;28;20024;-70
2022/06/06 06:31:12;;;;;;;6.53;2.70;;;;;;;;;;5052162;28;20013;-70
2022/06/06 06:33:56;;;;;;;7.97;3.25;;;;;;;;;;5047124;28;20047;-70
2022/06/06 06:36:40;;;;;;;4.63;2.80;;;;;;;;;;5044575;28;20009;-70
2022/06/06 06:39:05;;;;;;;10.38;2.75;;;;;;;;;;5045978;28;20029;-71
2022/06/06 06:41:35;;;;;;;24.65;3.05;;;;;;;;;;5047698;28;20021;-71
2022/06/06 06:44:00;;;;;;;4.45;2.50;;;;;;;;;;5049444;28;20079;-71
2022/06/06 06:46:26;;;;;;;7.95;2.90;;;;;;;;;;5048302;28;20493;-71
2022/06/06 06:48:56;;;;;;;7.55;2.33;;;;;;;;;;5044504;28;20021;-71
2022/06/06 06:51:43;;;;;;;10.63;3.00;;;;;;;;;;5046452;28;20104;-71
2022/06/06 06:54:14;;;;;;;2.45;1.60;;;;;;;;;;5049826;28;20044;-71
2022/06/06 06:56:58;;;;;;;3.47;2.17;;;;;;;;;;5052720;28;20169;-71
2022/06/06 06:59:30;;;;;;;5.20;1.85;;;;;;;;;;5047073;28;20025;-71
2022/06/06 07:11:06;;;;;;;2.83;1.63;;;;;;;;;;5041962;28;20095;-71
2022/06/06 07:13:31;;;;;;;7.20;1.83;;;;;;;;;;5045879;28;20021;-71
2022/06/06 07:16:02;;;;;;;5.68;1.88;;;;;;;;;;5050827;28;20079;-71
2022/06/06 07:18:31;;;;;;;4.55;1.98;;;;;;;;;;5047061;28;20033;-71
2022/06/06 07:20:57;;;;;;;3.17;1.33;;;;;;;;;;5047348;28;20060;-71
2022/06/06 07:23:22;;;;;;;3.35;1.70;;;;;;;;;;5047854;28;20044;-71
2022/06/06 07:25:49;;;;;;;4.07;1.13;;;;;;;;;;5048113;28;20033;-71
2022/06/06 07:28:16;;;;;;;2.25;1.27;;;;;;;;;;5045901;28;20423;-71
2022/06/06 07:30:46;;;;;;;2.33;1.30;;;;;;;;;;5049014;28;20381;-71
2022/06/06 07:33:28;;;;;;;5.00;1.60;;;;;;;;;;5049487;28;20036;-71
2022/06/06 07:36:03;;;;;;;2.88;1.17;;;;;;;;;;5047612;28;20031;-71
2022/06/06 07:38:37;;;;;;;4.40;1.15;;;;;;;;;;5047325;28;20029;-71
2022/06/06 07:41:20;;;;;;;3.92;1.20;;;;;;;;;;5043857;28;20029;-71
2022/06/06 07:43:59;;;;;;;2.00;0.95;;;;;;;;;;5047867;28;20516;-71
2022/06/06 07:46:30;;;;;;;2.58;1.30;;;;;;;;;;5047051;28;20098;-72
2022/06/06 07:49:05;;;;;;;2.58;1.10;;;;;;;;;;5044347;28;20021;-72
2022/06/06 07:51:38;;;;;;;3.45;1.25;;;;;;;;;;5048583;28;20029;-72
2022/06/06 07:54:03;;;;;;;2.53;1.27;;;;;;;;;;5051079;28;20029;-72
2022/06/06 07:56:47;;;;;;;1.98;1.25;;;;;;;;;;5046647;28;20363;-72
2022/06/06 07:59:45;;;;;;;4.35;1.60;;;;;;;;;;5048161;28;20029;-72
2022/06/06 08:02:13;;;;;;;4.80;1.50;;;;;;;;;;5016226;28;20043;-72
2022/06/06 08:04:49;;;;;;;6.30;1.63;;;;;;;;;;5052013;28;20078;-72
2022/06/06 08:07:21;;;;;;;2.20;1.35;;;;;;;;;;5047642;28;20024;-72
2022/06/06 08:09:57;;;;;;;3.47;1.67;;;;;;;;;;5050359;28;20029;-72
2022/06/06 08:12:33;;;;;;;2.53;1.52;;;;;;;;;;5047255;28;20420;-72
2022/06/06 08:15:08;;;;;;;2.83;1.20;;;;;;;;;;5050274;28;20074;-72
2022/06/06 08:17:33;;;;;;;3.33;1.52;;;;;;;;;;5040417;28;20047;-72
2022/06/06 08:19:58;;;;;;;2.37;1.20;;;;;;;;;;5046278;28;20738;-72
2022/06/06 08:22:24;;;;;;;3.33;1.88;;;;;;;;;;5049610;28;20283;-71
2022/06/06 08:24:52;;;;;;;3.13;1.17;;;;;;;;;;5048607;28;20024;-72
2022/06/06 08:27:18;;;;;;;5.35;1.20;;;;;;;;;;5048899;28;20044;-72
2022/06/06 08:29:44;;;;;;;4.13;1.20;;;;;;;;;;5049657;28;20403;-72
2022/06/06 08:32:10;;;;;;;3.55;1.40;;;;;;;;;;5050560;28;20093;-72
2022/06/06 08:34:37;;;;;;;2.03;1.17;;;;;;;;;;5050578;28;20029;-72
2022/06/06 08:37:09;;;;;;;2.25;0.98;;;;;;;;;;5047477;28;20067;-72
2022/06/06 08:39:37;;;;;;;1.88;1.00;;;;;;;;;;5047132;28;20119;-72
2022/06/06 08:42:21;;;;;;;3.50;0.98;;;;;;;;;;5043681;28;20428;-72
2022/06/06 08:45:07;;;;;;;1.60;0.70;;;;;;;;;;5044669;28;20036;-72
2022/06/06 08:47:39;;;;;;;5.25;1.17;;;;;;;;;;5036876;28;20112;-72
2022/06/06 08:53:28;;;;;;;3.25;0.98;;;;;;;;;;5042115;28;20067;-72
2022/06/06 08:56:05;;;;;;;6.53;1.00;;;;;;;;;;5046032;28;20039;-72
2022/06/06 08:58:41;;;;;;;2.35;1.00;;;;;;;;;;5043890;28;20021;-72
2022/06/06 09:01:22;;;;;;;2.00;0.90;;;;;;;;;;5044044;28;20041;-73
2022/06/06 09:04:06;;;;;;;4.40;0.90;;;;;;;;;;5049289;28;20024;-72
2022/06/06 09:06:47;;;;;;;3.13;0.60;;;;;;;;;;5046789;28;20017;-72
2022/06/06 09:09:12;;;;;;;;;;;;;;;;;;5048988;28;20017;-72
2022/06/06 09:11:46;;;;;;;1.80;0.77;;;;;;;;;;5046698;28;19912;-72
2022/06/06 09:14:29;;;;;;;4.63;0.80;;;;;;;;;;5045729;28;20029;-72
2022/06/06 09:16:57;;;;;;;2.78;0.50;;;;;;;;;;5045683;28;20021;-72
2022/06/06 09:19:41;;;;;;;8.13;1.63;;;;;;;;;;5049150;28;20088;-72
2022/06/06 09:22:07;;;;;;;0.93;0.63;;;;;;;;;;5043375;28;20029;-72
2022/06/06 09:24:50;;;;;;;1.88;0.60;;;;;;;;;;5048893;28;20055;-72
2022/06/06 09:27:31;;;;;;;1.70;0.68;;;;;;;;;;5173560;22;20012;-70
2022/06/06 09:30:08;;;;;;;1.08;0.70;;;;;;;;;;5020057;28;20029;-70
2022/06/06 09:32:57;;;;;;;3.58;0.60;;;;;;;;;;5028150;28;20112;-70
2022/06/06 09:35:25;;;;;;;1.45;0.70;;;;;;;;;;5029271;28;20497;-70
2022/06/06 09:38:00;;;;;;;3.97;0.90;;;;;;;;;;5028171;28;20029;-70
2022/06/06 09:40:42;;;;;;;4.68;0.95;;;;;;;;;;5025173;28;20058;-70
2022/06/06 09:43:08;;;;;;;5.88;0.90;;;;;;;;;;5026577;28;20265;-71
2022/06/06 09:45:37;;;;;;;7.95;1.20;;;;;;;;;;5028926;28;20075;-71
2022/06/06 09:48:05;;;;;;;7.03;1.08;;;;;;;;;;5031761;28;20385;-71
2022/06/06 09:50:59;;;;;;;7.50;1.63;;;;;;;;;;5028768;28;20067;-71
2022/06/06 09:53:40;;;;;;;5.80;1.85;;;;;;;;;;5025236;28;20501;-70
2022/06/06 09:59:11;;;;;;;7.10;1.58;;;;;;;;;;5026913;28;20437;-70
2022/06/06 10:01:55;;;;;;;6.75;1.73;;;;;;;;;;5029321;28;20021;-70
2022/06/06 10:04:27;;;;;;;4.45;0.90;;;;;;;;;;5025979;28;20017;-71
2022/06/06 10:07:04;;;;;;;1.90;1.05;;;;;;;;;;5027446;28;20017;-70
2022/06/06 10:09:44;;;;;;;2.45;0.80;;;;;;;;;;5026627;28;20043;-70
2022/06/06 10:12:09;;;;;;;3.10;1.45;;;;;;;;;;5030204;28;20393;-70
2022/06/06 10:14:37;;;;;;;4.00;1.23;;;;;;;;;;5028224;28;20021;-69
2022/06/06 10:17:21;;;;;;;4.95;0.90;;;;;;;;;;5027512;28;20288;-69
2022/06/06 10:19:49;;;;;;;3.65;1.08;;;;;;;;;;5030264;28;20100;-69
2022/06/06 10:22:36;;;;;;;4.10;0.95;;;;;;;;;;5027847;28;20091;-71
2022/06/06 10:25:13;;;;;;;2.30;1.17;;;;;;;;;;5027189;28;20025;-72
2022/06/06 10:27:41;;;;;;;4.03;1.23;;;;;;;;;;5027288;28;20049;-71
2022/06/06 10:30:19;;;;;;;8.68;4.72;;;;;;;;;;5029425;28;20026;-71
2022/06/06 10:32:53;;;;;;;11.82;9.60;;;;;;;;;;5025952;28;20028;-71
2022/06/06 10:35:24;;;;;;;4.43;3.17;;;;;;;;;;5027097;28;20025;-71
2022/06/06 10:37:58;;;;;;;5.63;1.60;;;;;;;;;;5029549;28;20045;-71
2022/06/06 10:40:42;;;;;;;2.15;1.30;;;;;;;;;;5025821;28;20030;-71
2022/06/06 10:43:19;;;;;;;10.80;5.50;;;;;;;;;;5028732;28;20021;-70
2022/06/06 10:45:48;;;;;;;6.15;2.90;;;;;;;;;;5029021;28;20025;-70
2022/06/06 10:48:20;;;;;;;3.38;1.20;;;;;;;;;;5028181;28;20464;-70
2022/06/06 10:53:53;;;;;;;9.13;5.90;;;;;;;;;;5025957;28;20397;-68
2022/06/06 10:56:39;;;;;;;7.20;1.88;;;;;;;;;;5025532;28;20025;-69
2022/06/06 10:59:28;;;;;;;2.50;1.00;;;;;;;;;;5024093;28;20038;-70
2022/06/06 11:02:12;;;;;;;2.83;1.23;;;;;;;;;;5029125;28;20546;-69
2022/06/06 11:04:55;;;;;;;3.28;1.05;;;;;;;;;;5022409;28;20079;-70
2022/06/06 11:07:33;;;;;;;7.93;1.33;;;;;;;;;;5025489;28;20014;-69
2022/06/06 11:10:07;;;;;;;8.63;1.13;;;;;;;;;;5028158;28;20049;-70
2022/06/06 11:12:41;;;;;;;2.60;1.05;;;;;;;;;;5027288;28;20022;-69
2022/06/06 11:15:06;;;;;;;2.05;0.80;;;;;;;;;;5026340;28;20025;-70
2022/06/06 11:17:40;;;;;;;1.60;0.80;;;;;;;;;;5028417;28;20018;-70
2022/06/06 11:20:24;;;;;;;1.33;0.77;;;;;;;;;;5027999;28;20048;-69
2022/06/06 11:22:54;;;;;;;4.93;0.82;;;;;;;;;;5028450;28;20021;-69
2022/06/06 11:25:19;;;;;;;;;;;;;;;;;;5027545;28;20026;-69
2022/06/06 11:28:11;;;;;;;2.38;0.50;;;;;;;;;;5032681;28;19920;-69
2022/06/06 11:30:39;;;;;;;1.15;0.70;;;;;;;;;;5028492;28;20021;-69
2022/06/06 11:33:10;;;;;;;4.70;0.80;;;;;;;;;;5028038;28;20032;-70
2022/06/06 11:35:54;;;;;;;3.88;0.70;;;;;;;;;;5031793;28;20021;-70
2022/06/06 11:38:42;;;;;;;3.67;0.95;;;;;;;;;;5032084;28;20033;-70
2022/06/06 11:41:27;;;;;;;2.20;0.70;;;;;;;;;;5030228;28;20072;-69
2022/06/06 11:44:01;;;;;;;2.40;0.85;;;;;;;;;;5031009;28;20022;-70
2022/06/06 11:46:38;;;;;;;0.77;0.40;;;;;;;;;;5028681;28;20477;-70
2022/06/06 11:49:22;;;;;;;2.33;0.70;;;;;;;;;;5031015;28;20083;-69
2022/06/06 11:52:01;;;;;;;6.63;0.60;;;;;;;;;;5030185;28;20382;-69
2022/06/06 11:54:45;;;;;;;1.38;0.40;;;;;;;;;;5026496;28;20021;-70
2022/06/06 11:57:10;;;;;;;0.95;0.50;;;;;;;;;;5029702;28;20029;-69
2022/06/06 11:59:35;;;;;;;1.33;0.70;;;;;;;;;;5032829;28;20021;-70
2022/06/06 12:02:12;;;;;;;2.10;0.80;;;;;;;;;;5031153;28;20025;-70
2022/06/06 12:04:56;;;;;;;4.30;0.63;;;;;;;;;;5027195;28;20044;-70
2022/06/06 12:07:33;;;;;;;1.15;0.70;;;;;;;;;;5027304;28;20017;-70
2022/06/06 12:10:07;;;;;;;0.93;0.50;;;;;;;;;;5029238;28;20385;-70
2022/06/06 12:12:48;;;;;;;2.00;0.82;;;;;;;;;;5029789;28;20029;-70
2022/06/06 12:15:31;;;;;;;1.35;1.05;;;;;;;;;;5028739;28;20100;-70
2022/06/06 12:18:20;;;;;;;2.17;0.90;;;;;;;;;;5030273;28;20025;-70
2022/06/06 12:21:04;;;;;;;1.85;0.65;;;;;;;;;;5008240;28;20048;-71
2022/06/06 12:23:41;;;;;;;5.88;0.82;;;;;;;;;;5026231;28;20025;-71
2022/06/06 12:26:25;;;;;;;4.00;1.05;;;;;;;;;;5032404;28;20025;-70
2022/06/06 12:28:50;;;;;;;1.05;0.75;;;;;;;;;;5030066;28;20022;-70
2022/06/06 12:31:18;;;;;;;0.97;0.50;;;;;;;;;;5031463;28;20025;-70
2022/06/06 12:33:46;;;;;;;2.30;0.77;;;;;;;;;;5026205;28;20783;-70
2022/06/06 12:36:15;;;;;;;3.60;0.70;;;;;;;;;;5028404;28;20033;-70
2022/06/06 12:38:47;;;;;;;1.73;0.90;;;;;;;;;;5030748;28;20034;-70
2022/06/06 12:41:38;;;;;;;4.63;1.38;;;;;;;;;;5027754;28;20156;-70
2022/06/06 12:44:14;;;;;;;3.80;1.50;;;;;;;;;;5029485;28;20374;-70
2022/06/06 12:46:48;;;;;;;7.68;1.00;;;;;;;;;;5029780;28;20017;-70
2022/06/06 12:49:20;;;;;;;7.75;1.20;;;;;;;;;;5030775;28;20025;-69
2022/06/06 12:52:01;;;;;;;6.45;1.00;;;;;;;;;;5029599;28;20013;-70
2022/06/06 12:57:46;;;;;;;4.97;0.88;;;;;;;;;;5026347;28;20104;-70
2022/06/06 13:00:12;;;;;;;2.92;1.10;;;;;;;;;;5014703;28;20453;-69
2022/06/06 13:02:47;;;;;;;5.82;1.00;;;;;;;;;;5028555;28;20124;-70
2022/06/06 13:05:12;;;;;;;2.38;1.15;;;;;;;;;;5028999;28;20025;-69
2022/06/06 13:07:59;;;;;;;4.10;0.90;;;;;;;;;;5029924;28;20030;-69
2022/06/06 13:10:43;;;;;;;4.57;1.20;;;;;;;;;;5029002;28;20116;-69
2022/06/06 13:13:08;;;;;;;3.17;1.10;;;;;;;;;;5029126;28;20034;-70
2022/06/06 13:15:51;;;;;;;2.67;1.13;;;;;;;;;;5030001;28;20024;-69
2022/06/06 13:18:35;;;;;;;4.63;1.52;;;;;;;;;;5027116;28;20283;-70
2022/06/06 13:21:11;;;;;;;2.60;0.77;;;;;;;;;;5026280;28;20021;-69
2022/06/06 13:23:42;;;;;;;2.35;1.00;;;;;;;;;;5028188;28;20048;-69
2022/06/06 13:26:21;;;;;;;4.78;1.15;;;;;;;;;;5030377;28;20037;-70
2022/06/06 13:28:51;;;;;;;14.13;1.02;;;;;;;;;;5029358;28;20088;-69
2022/06/06 13:31:22;;;;;;;3.85;0.88;;;;;;;;;;5029222;28;20025;-69
2022/06/06 13:34:06;;;;;;;3.13;1.02;;;;;;;;;;5026004;28;20594;-71
2022/06/06 13:36:38;;;;;;;3.83;1.05;;;;;;;;;;5029543;28;20029;-69
2022/06/06 13:39:22;;;;;;;1.73;0.73;;;;;;;;;;5030075;28;20056;-68
2022/06/06 13:42:06;;;;;;;4.80;1.05;;;;;;;;;;5027559;28;20022;-69
2022/06/06 13:44:49;;;;;;;2.70;0.90;;;;;;;;;;5026749;28;20041;-70
2022/06/06 13:47:17;;;;;;;4.65;1.25;;;;;;;;;;5028906;28;20136;-70
2022/06/06 13:49:51;;;;;;;3.35;2.15;;;;;;;;;;5028044;28;20540;-69
2022/06/06 13:52:22;;;;;;;6.15;1.40;;;;;;;;;;5027846;28;20029;-68
2022/06/06 13:54:47;;;;;;;2.63;1.00;;;;;;;;;;5029778;28;20021;-70
2022/06/06 13:57:16;;;;;;;5.20;1.23;;;;;;;;;;5027285;28;20478;-69
2022/06/06 13:59:47;;;;;;;2.75;1.10;;;;;;;;;;5029327;28;20276;-70
2022/06/06 14:02:21;;;;;;;4.55;0.93;;;;;;;;;;5027157;28;20105;-71
2022/06/06 14:05:06;;;;;;;5.22;1.42;;;;;;;;;;5030161;28;20662;-71
2022/06/06 14:07:44;;;;;;;5.25;1.00;;;;;;;;;;5025211;28;20043;-70
2022/06/06 14:10:13;;;;;;;3.38;1.05;;;;;;;;;;5029036;28;20021;-70
2022/06/06 14:12:51;;;;;;;2.93;0.60;;;;;;;;;;5026913;28;20025;-69
2022/06/06 14:15:19;;;;;;;4.03;1.20;;;;;;;;;;5028653;28;20648;-70
2022/06/06 14:18:00;;;;;;;4.70;0.88;;;;;;;;;;5028395;28;20029;-70
2022/06/06 14:20:53;;;;;;;6.70;1.30;;;;;;;;;;5023668;28;20044;-70
2022/06/06 14:23:24;;;;;;;5.57;0.70;;;;;;;;;;5024775;28;20068;-70
2022/06/06 14:25:54;;;;;;;8.32;0.90;;;;;;;;;;5026566;28;20556;-70
2022/06/06 14:28:30;;;;;;;7.43;0.80;;;;;;;;;;5024916;28;20022;-70
2022/06/06 14:30:55;;;;;;;7.63;0.90;;;;;;;;;;5022777;28;20536;-71
2022/06/06 14:33:32;;;;;;;3.92;0.57;;;;;;;;;;5023990;28;20016;-70
2022/06/06 14:36:19;;;;;;;4.18;1.10;;;;;;;;;;5028058;28;20025;-70
2022/06/06 14:38:45;;;;;;;8.10;0.95;;;;;;;;;;5027280;28;20025;-70
2022/06/06 14:41:13;;;;;;;5.35;1.00;;;;;;;;;;5026919;28;20650;-70
2022/06/06 14:43:46;;;;;;;5.72;1.27;;;;;;;;;;5028896;28;20474;-71
2022/06/06 14:46:12;;;;;;;8.68;1.10;;;;;;;;;;5027177;28;20051;-71
2022/06/06 14:48:42;;;;;;;3.13;0.77;;;;;;;;;;5027482;28;20014;-71
2022/06/06 14:51:09;;;;;;;3.75;1.10;;;;;;;;;;5026500;28;20066;-71
2022/06/06 14:53:37;;;;;;;7.50;1.40;;;;;;;;;;5028090;28;20036;-71
2022/06/06 14:56:06;;;;;;;3.67;0.73;;;;;;;;;;5027538;28;20022;-71
2022/06/06 14:58:32;;;;;;;4.20;1.13;;;;;;;;;;5025733;28;20166;-71
2022/06/06 15:00:58;;;;;;;5.88;1.42;;;;;;;;;;5032170;28;20029;-70
2022/06/06 15:03:35;;;;;;;2.15;0.93;;;;;;;;;;5031997;28;20021;-70
2022/06/06 15:06:08;;;;;;;1.75;0.70;;;;;;;;;;5031921;28;20161;-70
2022/06/06 15:08:37;;;;;;;4.22;0.70;;;;;;;;;;5029032;28;20108;-71
2022/06/06 15:11:04;;;;;;;6.88;1.30;;;;;;;;;;5031416;28;20159;-71
2022/06/06 15:13:31;;;;;;;5.43;1.35;;;;;;;;;;5031289;28;20017;-71
2022/06/06 15:15:58;;;;;;;4.97;1.23;;;;;;;;;;5032996;28;20037;-70
2022/06/06 15:18:28;;;;;;;1.80;0.70;;;;;;;;;;5030408;28;21106;-70
2022/06/06 15:20:54;;;;;;;1.33;0.57;;;;;;;;;;5032335;28;20025;-71
2022/06/06 15:23:21;;;;;;;5.88;0.90;;;;;;;;;;5028373;28;20375;-72
2022/06/06 15:26:10;;;;;;;5.78;2.28;;;;;;;;;;5032256;28;20168;-69
2022/06/06 15:28:37;;;;;;;5.13;2.60;;;;;;;;;;5011772;28;20041;-71
2022/06/06 15:31:03;;;;;;;8.10;2.30;;;;;;;;;;5030086;28;20021;-71
2022/06/06 15:33:41;;;;;;;8.75;1.83;;;;;;;;;;5031039;28;20017;-70
2022/06/06 15:36:12;;;;;;;4.72;1.17;;;;;;;;;;5031191;28;20432;-70
2022/06/06 15:38:43;;;;;;;1.42;0.80;;;;;;;;;;5031936;28;20017;-71